Harwood, TX

2:49 AM CST on November 12, 2019 (GMT -0600)
Rancho Dos Ninos | | Change Station
Active Advisory: Wind Advisory

Elev 1119 ft 29.79 °N, 97.45 °W | Updated 7 seconds ago

Overcast
Overcast
32.5 °F
Feels Like 23 °F
N
12.8
Wind Variable Wind from WSW
Gusts 17.4 mph

Today
High -- | Low -- °F
--% Chance of Precip.
Yesterday
High -- | Low -- °F
Precip. -- in
Pressure 30.43 in
Visibility 10.0 miles
Clouds Scattered Clouds 2800 ft
Overcast 3900 ft
Windchill 23 °F
Dew Point 19 °F
Humidity 58%
Rainfall 0.00 in
Snow Depth Not available.
6:51 AM 5:36 PM
Full, 100% visible
METAR KT20 120835Z AUTO 36014G24KT 10SM SCT028 OVC039 02/M03 A3043 RMK AO2 T00151027
Pressure 30.43 in
Visibility 10.0 miles
Clouds Scattered Clouds 2800 ft
Overcast 3900 ft
Windchill 23 °F
Dew Point 19 °F
Humidity 58%
Rainfall 0.00 in
Snow Depth Not available.
6:51 AM 5:36 PM
Full, 100% visible
METAR KT20 120835Z AUTO 36014G24KT 10SM SCT028 OVC039 02/M03 A3043 RMK AO2 T00151027

Get Your Daily Forecast Email!

Thanks for signing up!

Be on the lookout for a verification email in your inbox.

You'll start receiving severe weather alerts in your inbox..

×

10-Day Weather Forecast

Almanac

Astronomy

Nov. 12, 2019 Rise Set
Actual Time
Civil Twilight
Nautical Twilight
Astronomical Twilight
Moon
Length of Visible Light
Length of Day
Tomorrow will be .
, % of the Moon is Illuminated

Today's Extremes

State Highs State Lows

Community

WunderPhotos

Category 6

Welcome to Category 6. This is the collective home for Weather Underground's featured writeups by Dr. Jeff Masters (right), Bob Henson (left), Chris Burt, and other regular contributors.

Nearby

Air Quality

  Air Quality AQ Index Pollutant
Not available.

Snow Depth

Station Depth Elevation

Earthquake Activity

City Distance Mag. Time & Date
Minimum magnitude displayed is 2.5.

Coastal Water Temperatures

Place Temperature

Stations

Nearby Weather Stations

Station Location Temp. Windchill Dew Point Humidity Wind Precip. Elev Updated Type
                   

Watches & Warnings

Wind Advisory
Issued: 3:21 PM CST Nov. 11, 2019 – National Weather Service

... Wind Advisory remains in effect until 6 am CST Tuesday...

* what... north winds 20 to 30 mph with gusts up to 45 mph.

* Where... all of south central Texas.

* When... from noon Monday until 6 am CST Tuesday.

* Impacts... gusty winds could blow around unsecured objects.
Tree limbs could be blown down and a few power outages may
result. Travel could be difficult for high profile vehicles on
east to west oriented roads.

Precautionary/preparedness actions...

Use extra caution when driving, especially if operating a high
profile vehicle. Secure outdoor objects.